createdAt,value
2022-08-03T00:01:49.661Z,21.42
2022-08-03T00:04:16.542Z,21.48
2022-08-03T00:06:43.393Z,21.61
2022-08-03T00:09:10.729Z,21.70
2022-08-03T00:11:38.411Z,21.68
2022-08-03T00:14:09.102Z,21.54
2022-08-03T00:16:36.060Z,21.23
2022-08-03T00:19:03.433Z,21.34
2022-08-03T00:21:30.348Z,21.24
2022-08-03T00:23:57.234Z,21.18
2022-08-03T00:26:23.984Z,21.10
2022-08-03T00:28:51.106Z,21.13
2022-08-03T00:31:22.353Z,21.18
2022-08-03T00:34:04.618Z,21.17
2022-08-03T00:36:32.955Z,21.26
2022-08-03T00:38:59.743Z,21.29
2022-08-03T00:41:26.515Z,21.19
2022-08-03T00:43:53.262Z,21.25
2022-08-03T00:46:22.440Z,21.27
2022-08-03T00:48:50.399Z,21.34
2022-08-03T00:51:18.239Z,21.29
2022-08-03T00:53:45.881Z,21.54
2022-08-03T00:56:16.699Z,21.46
2022-08-03T00:58:47.579Z,21.40
2022-08-03T01:01:15.398Z,21.27
2022-08-03T01:03:42.330Z,21.19
2022-08-03T01:06:11.807Z,21.13
2022-08-03T01:08:47.542Z,21.07
2022-08-03T01:11:32.473Z,21.01
2022-08-03T01:14:40.063Z,21.01
2022-08-03T01:17:19.458Z,20.85
2022-08-03T01:20:07.092Z,20.87
2022-08-03T01:23:21.325Z,20.90
2022-08-03T01:26:07.134Z,20.67
2022-08-03T01:28:52.591Z,20.77
2022-08-03T01:31:26.208Z,20.57
2022-08-03T01:34:01.457Z,20.41
2022-08-03T01:36:36.664Z,20.38
2022-08-03T01:39:09.597Z,20.27
2022-08-03T01:41:42.403Z,20.15
2022-08-03T01:44:29.942Z,20.19
2022-08-03T01:47:02.987Z,20.19
2022-08-03T01:49:34.031Z,20.14
2022-08-03T01:52:05.020Z,20.03
2022-08-03T01:54:41.015Z,20.16
2022-08-03T01:57:09.738Z,20.31
2022-08-03T01:59:38.905Z,20.36
2022-08-03T02:02:29.892Z,20.50
2022-08-03T02:04:57.694Z,20.29
2022-08-03T02:07:26.896Z,20.38
2022-08-03T02:09:55.200Z,20.25
2022-08-03T02:12:25.011Z,20.10
2022-08-03T02:14:52.226Z,20.19
2022-08-03T02:17:39.385Z,20.38
2022-08-03T02:20:09.177Z,20.38
2022-08-03T02:22:39.278Z,20.36
2022-08-03T02:25:10.669Z,20.39
2022-08-03T02:27:43.816Z,20.49
2022-08-03T02:30:12.734Z,20.45
2022-08-03T02:32:42.672Z,20.32
2022-08-03T02:35:15.487Z,20.40
2022-08-03T02:37:49.778Z,20.54
2022-08-03T02:40:19.314Z,20.27
2022-08-03T02:42:47.328Z,20.19
2022-08-03T02:45:17.110Z,20.27
2022-08-03T02:47:53.422Z,20.33
2022-08-03T02:50:24.722Z,20.38
2022-08-03T02:52:53.410Z,20.41
2022-08-03T02:55:23.027Z,20.60
2022-08-03T02:57:51.568Z,20.76
2022-08-03T03:00:19.648Z,20.76
2022-08-03T03:02:58.118Z,20.70
2022-08-03T03:05:54.865Z,20.78
2022-08-03T03:08:18.866Z,20.77
2022-08-03T03:10:53.256Z,20.58
2022-08-03T03:13:22.770Z,20.67
2022-08-03T03:15:50.975Z,20.84
2022-08-03T03:18:22.225Z,20.80
2022-08-03T03:20:51.783Z,20.86
2022-08-03T03:23:20.401Z,20.84
2022-08-03T03:25:47.641Z,20.72
2022-08-03T03:28:15.122Z,20.80
2022-08-03T03:30:42.426Z,20.90
2022-08-03T03:33:09.148Z,21.02
2022-08-03T03:35:38.830Z,20.92
2022-08-03T03:38:07.214Z,20.89
2022-08-03T03:40:36.495Z,20.88
2022-08-03T03:43:04.016Z,20.89
2022-08-03T03:45:31.531Z,20.88
2022-08-03T03:48:00.676Z,20.81
2022-08-03T03:50:28.421Z,21.20
2022-08-03T03:52:55.140Z,21.17
2022-08-03T03:55:21.939Z,21.31
2022-08-03T03:57:48.700Z,21.42
2022-08-03T04:00:18.036Z,21.48
2022-08-03T04:02:47.856Z,21.43
2022-08-03T04:05:34.139Z,21.34
2022-08-03T04:08:25.090Z,21.34
2022-08-03T04:11:16.081Z,21.56
2022-08-03T04:13:57.284Z,21.72
2022-08-03T04:16:33.798Z,21.74
2022-08-03T04:19:08.360Z,21.77
2022-08-03T04:21:38.278Z,21.92
2022-08-03T04:24:08.662Z,22.00
2022-08-03T04:26:39.673Z,21.99
2022-08-03T04:29:08.062Z,22.09
2022-08-03T04:31:35.673Z,21.83
2022-08-03T04:34:03.382Z,22.16
2022-08-03T04:36:33.964Z,22.27
2022-08-03T04:39:18.472Z,22.23
2022-08-03T04:42:07.156Z,22.38
2022-08-03T04:44:39.156Z,22.45
2022-08-03T04:47:05.992Z,22.57
2022-08-03T04:49:33.406Z,22.60
2022-08-03T04:52:00.366Z,22.55
2022-08-03T04:54:27.140Z,22.85
2022-08-03T04:56:53.866Z,22.85
2022-08-03T04:59:20.673Z,23.13
2022-08-03T05:01:47.615Z,23.21
2022-08-03T05:04:14.798Z,23.20
2022-08-03T05:06:48.132Z,23.46
2022-08-03T05:09:50.055Z,23.34
2022-08-03T05:12:08.476Z,23.65
2022-08-03T05:14:37.896Z,23.79
2022-08-03T05:17:05.973Z,23.87
2022-08-03T05:19:33.329Z,23.99
2022-08-03T05:22:00.189Z,24.32
2022-08-03T05:24:27.483Z,24.50
2022-08-03T05:26:54.282Z,24.28
2022-08-03T05:29:21.319Z,24.38
2022-08-03T05:31:48.066Z,24.65
2022-08-03T05:34:15.087Z,24.94
2022-08-03T05:36:41.869Z,25.19
2022-08-03T05:39:08.580Z,25.33
2022-08-03T05:41:37.063Z,25.66
2022-08-03T05:44:04.939Z,25.56
2022-08-03T05:46:32.264Z,25.82
2022-08-03T05:48:59.185Z,26.21
2022-08-03T05:51:26.015Z,26.19
2022-08-03T05:53:52.801Z,26.25
2022-08-03T05:56:23.658Z,26.31
2022-08-03T05:58:51.925Z,26.68
2022-08-03T06:01:21.953Z,26.91
2022-08-03T06:03:50.270Z,26.74
2022-08-03T06:06:17.115Z,26.69
2022-08-03T06:08:45.056Z,26.68
2022-08-03T06:11:12.452Z,26.78
2022-08-03T06:13:39.519Z,26.77
2022-08-03T06:16:06.458Z,26.58
2022-08-03T06:18:33.373Z,26.97
2022-08-03T06:21:15.003Z,26.39
2022-08-03T06:23:54.553Z,26.80
2022-08-03T06:26:23.552Z,27.04
2022-08-03T06:28:52.831Z,26.90
2022-08-03T06:31:24.000Z,26.56
2022-08-03T06:34:33.597Z,26.79
2022-08-03T06:36:38.112Z,27.07
2022-08-03T06:39:05.555Z,27.43
2022-08-03T06:41:38.199Z,27.58
2022-08-03T06:44:11.495Z,27.67
2022-08-03T06:46:38.238Z,27.78
2022-08-03T06:49:05.087Z,27.53
2022-08-03T06:52:05.765Z,27.94
2022-08-03T06:54:18.994Z,27.85
2022-08-03T06:56:45.771Z,28.22
2022-08-03T07:00:09.680Z,28.46
2022-08-03T07:01:59.357Z,28.83
2022-08-03T07:04:26.196Z,28.77
2022-08-03T07:06:52.905Z,29.04
2022-08-03T07:09:19.668Z,28.81
2022-08-03T07:11:46.437Z,28.23
2022-08-03T07:14:13.182Z,28.40
2022-08-03T07:16:39.947Z,28.83
2022-08-03T07:19:06.696Z,29.32
2022-08-03T07:21:33.437Z,28.36
2022-08-03T07:24:00.228Z,28.65
2022-08-03T07:26:26.997Z,29.08
2022-08-03T07:28:53.771Z,28.52
2022-08-03T07:31:20.872Z,28.64
2022-08-03T07:33:47.649Z,29.02
2022-08-03T07:36:14.564Z,29.18
2022-08-03T07:38:41.390Z,29.48
2022-08-03T07:41:08.097Z,29.02
2022-08-03T07:43:34.814Z,29.24
2022-08-03T07:46:01.574Z,29.36
2022-08-03T07:48:28.302Z,29.23
2022-08-03T07:50:55.009Z,29.51
2022-08-03T07:53:25.813Z,29.06
2022-08-03T07:55:52.557Z,29.23
2022-08-03T07:58:23.958Z,29.89
2022-08-03T08:00:53.684Z,29.34
2022-08-03T08:03:22.039Z,29.39
2022-08-03T08:05:49.801Z,30.19
2022-08-03T08:08:16.677Z,30.16
2022-08-03T08:10:58.417Z,30.56
2022-08-03T08:13:25.738Z,30.12
2022-08-03T08:15:52.499Z,30.29
2022-08-03T08:18:19.302Z,30.06
2022-08-03T08:20:46.326Z,30.42
2022-08-03T08:23:41.613Z,30.43
2022-08-03T08:25:59.718Z,29.88
2022-08-03T08:28:32.796Z,29.98
2022-08-03T08:31:00.872Z,30.52
2022-08-03T08:33:42.214Z,31.04
2022-08-03T08:36:15.536Z,30.92
2022-08-03T08:38:44.680Z,31.67
2022-08-03T08:41:12.898Z,31.28
2022-08-03T08:43:40.214Z,31.71
2022-08-03T08:46:08.548Z,31.44
2022-08-03T08:48:40.553Z,31.21
2022-08-03T08:51:08.911Z,31.88
2022-08-03T08:53:38.482Z,32.12
2022-08-03T08:56:07.857Z,31.84
2022-08-03T08:58:38.797Z,31.93
2022-08-03T09:01:05.892Z,31.86
2022-08-03T09:03:35.988Z,32.15
2022-08-03T09:06:03.292Z,31.94
2022-08-03T09:08:31.919Z,31.65
2022-08-03T09:10:58.865Z,32.07
2022-08-03T09:13:25.831Z,31.98
2022-08-03T09:16:12.195Z,31.34
2022-08-03T09:18:39.955Z,32.11
2022-08-03T09:21:32.099Z,31.73
2022-08-03T09:24:03.871Z,31.87
2022-08-03T09:26:35.519Z,32.40
2022-08-03T09:29:14.917Z,32.07
2022-08-03T09:31:47.090Z,32.55
2022-08-03T09:34:16.517Z,32.49
2022-08-03T09:36:46.524Z,32.46
2022-08-03T09:39:16.578Z,32.24
2022-08-03T09:41:46.346Z,32.11
2022-08-03T09:44:24.453Z,31.92
2022-08-03T09:46:56.341Z,31.90
2022-08-03T09:49:24.545Z,31.72
2022-08-03T09:52:32.305Z,32.26
2022-08-03T09:54:39.771Z,32.58
2022-08-03T09:57:06.823Z,32.58
2022-08-03T09:59:34.846Z,32.62
2022-08-03T10:02:02.074Z,32.74
2022-08-03T10:04:29.473Z,32.20
2022-08-03T10:07:09.448Z,32.02
2022-08-03T10:09:38.352Z,31.54
2022-08-03T10:12:09.795Z,31.29
2022-08-03T10:14:42.062Z,31.33
2022-08-03T10:17:09.906Z,31.38
2022-08-03T10:19:36.814Z,31.36
2022-08-03T10:22:15.510Z,32.09
2022-08-03T10:25:04.201Z,32.13
2022-08-03T10:27:34.941Z,31.66
2022-08-03T10:30:05.064Z,31.61
2022-08-03T10:32:35.481Z,31.95
2022-08-03T10:35:20.075Z,32.27
2022-08-03T10:38:01.822Z,32.41
2022-08-03T10:40:49.607Z,33.06
2022-08-03T10:43:26.095Z,33.31
2022-08-03T10:45:53.253Z,32.88
2022-08-03T10:48:20.895Z,32.87
2022-08-03T10:50:50.812Z,32.15
2022-08-03T10:53:34.836Z,32.58
2022-08-03T10:56:21.629Z,33.07
2022-08-03T10:59:08.958Z,33.63
2022-08-03T11:02:00.420Z,33.18
2022-08-03T11:04:29.924Z,32.48
2022-08-03T11:07:26.559Z,32.87
2022-08-03T11:09:55.867Z,32.93
2022-08-03T11:12:31.058Z,32.67
2022-08-03T11:15:05.071Z,33.33
2022-08-03T11:17:46.573Z,33.08
2022-08-03T11:20:46.155Z,33.06
2022-08-03T11:23:14.046Z,33.20
2022-08-03T11:26:09.093Z,32.58
2022-08-03T11:28:36.026Z,32.17
2022-08-03T11:31:51.487Z,32.70
2022-08-03T11:34:18.764Z,32.32
2022-08-03T11:37:21.678Z,32.20
2022-08-03T11:39:50.713Z,32.52
2022-08-03T11:42:23.581Z,32.32
2022-08-03T11:44:51.967Z,31.33
2022-08-03T11:47:21.101Z,32.32
2022-08-03T11:49:49.451Z,32.52
2022-08-03T11:52:19.668Z,32.85
2022-08-03T11:54:56.775Z,33.21
2022-08-03T11:59:10.818Z,33.44
2022-08-03T12:00:28.797Z,33.07
2022-08-03T12:02:59.500Z,31.24
2022-08-03T12:05:35.347Z,32.24
2022-08-03T12:08:03.377Z,33.32
2022-08-03T12:10:32.322Z,32.43
2022-08-03T12:13:00.912Z,32.75
2022-08-03T12:15:29.556Z,32.22
2022-08-03T12:17:57.918Z,32.44
2022-08-03T12:20:34.430Z,33.55
2022-08-03T12:23:06.796Z,34.38
2022-08-03T12:25:38.774Z,33.86
2022-08-03T12:28:37.266Z,33.80
2022-08-03T12:31:07.585Z,34.21
2022-08-03T12:34:00.435Z,34.09
2022-08-03T12:36:28.192Z,34.44
2022-08-03T12:39:09.307Z,35.07
2022-08-03T12:41:38.444Z,35.15
2022-08-03T12:44:06.807Z,35.20
2022-08-03T12:46:42.742Z,35.52
2022-08-03T12:49:20.125Z,36.53
2022-08-03T12:51:46.968Z,35.97
2022-08-03T12:54:24.704Z,35.39
2022-08-03T12:57:01.962Z,35.55
2022-08-03T12:59:40.721Z,35.70
2022-08-03T13:02:18.881Z,34.05
2022-08-03T13:04:47.772Z,34.38
2022-08-03T13:07:15.845Z,34.61
2022-08-03T13:09:47.575Z,34.49
2022-08-03T13:12:22.369Z,34.66
2022-08-03T13:14:52.187Z,35.11
2022-08-03T13:17:20.256Z,34.56
2022-08-03T13:19:48.129Z,34.24
2022-08-03T13:22:25.989Z,35.13
2022-08-03T13:24:57.808Z,34.01
2022-08-03T13:28:03.759Z,34.49
2022-08-03T13:30:12.506Z,35.19
2022-08-03T13:32:39.505Z,34.90
2022-08-03T13:35:07.652Z,35.14
2022-08-03T13:37:34.518Z,34.22
2022-08-03T13:40:03.758Z,33.27
2022-08-03T13:42:34.348Z,32.63
2022-08-03T13:45:02.503Z,32.19
2022-08-03T13:47:29.430Z,32.47
2022-08-03T13:50:01.066Z,33.99
2022-08-03T13:52:31.012Z,34.70
2022-08-03T13:54:58.616Z,35.28
2022-08-03T13:58:02.299Z,34.24
2022-08-03T14:00:12.645Z,34.36
2022-08-03T14:02:39.424Z,35.03
2022-08-03T14:05:06.487Z,33.74
2022-08-03T14:07:33.381Z,33.36
2022-08-03T14:10:01.843Z,32.89
2022-08-03T14:12:28.673Z,32.21
2022-08-03T14:14:58.299Z,31.98
2022-08-03T14:17:27.996Z,31.59
2022-08-03T14:20:38.798Z,31.65
2022-08-03T14:22:56.758Z,31.66
2022-08-03T14:25:23.646Z,31.66
2022-08-03T14:27:50.477Z,31.58
2022-08-03T14:30:17.498Z,31.50
2022-08-03T14:32:44.296Z,31.38
2022-08-03T14:35:11.075Z,31.30
2022-08-03T14:37:37.845Z,31.35
2022-08-03T14:40:05.626Z,31.49
2022-08-03T14:42:32.876Z,31.35
2022-08-03T14:45:03.600Z,31.45
2022-08-03T14:47:34.168Z,31.11
2022-08-03T14:50:38.415Z,30.95
2022-08-03T14:53:07.714Z,30.69
2022-08-03T14:55:38.947Z,30.81
2022-08-03T14:58:19.721Z,30.82
2022-08-03T15:00:47.678Z,30.80
2022-08-03T15:03:16.639Z,30.88
2022-08-03T15:05:44.814Z,31.00
2022-08-03T15:08:11.763Z,31.03
2022-08-03T15:10:44.487Z,30.96
2022-08-03T15:13:13.213Z,31.05
2022-08-03T15:15:40.901Z,30.92
2022-08-03T15:18:08.023Z,30.82
2022-08-03T15:20:50.420Z,30.63
2022-08-03T15:23:17.606Z,30.63
2022-08-03T15:26:03.908Z,30.52
2022-08-03T15:28:32.719Z,30.49
2022-08-03T15:31:00.258Z,30.45
2022-08-03T15:33:27.223Z,30.51
2022-08-03T15:35:54.351Z,30.62
2022-08-03T15:38:26.021Z,30.72
2022-08-03T15:40:54.805Z,30.45
2022-08-03T15:43:25.210Z,30.37
2022-08-03T15:46:12.816Z,30.49
2022-08-03T15:48:39.787Z,30.52
2022-08-03T15:51:06.990Z,30.52
2022-08-03T15:53:34.139Z,30.48
2022-08-03T15:56:05.167Z,30.35
2022-08-03T15:59:04.270Z,30.48
2022-08-03T16:01:21.624Z,30.37
2022-08-03T16:03:48.468Z,30.39
2022-08-03T16:06:15.252Z,30.45
2022-08-03T16:08:42.065Z,30.36
2022-08-03T16:11:08.895Z,30.45
2022-08-03T16:14:05.516Z,30.38
2022-08-03T16:16:22.502Z,30.20
2022-08-03T16:18:49.228Z,30.25
2022-08-03T16:21:16.984Z,30.28
2022-08-03T16:23:47.313Z,30.26
2022-08-03T16:26:14.622Z,30.17
2022-08-03T16:28:41.668Z,30.06
2022-08-03T16:31:09.256Z,29.99
2022-08-03T16:33:36.347Z,30.01
2022-08-03T16:36:03.695Z,29.84
2022-08-03T16:38:30.725Z,30.03
2022-08-03T16:40:57.664Z,29.90
2022-08-03T16:43:24.879Z,29.84
2022-08-03T16:45:52.314Z,29.83
2022-08-03T16:48:19.382Z,29.77
2022-08-03T16:50:46.323Z,29.88
2022-08-03T16:53:16.619Z,29.87
2022-08-03T16:55:53.411Z,29.83
2022-08-03T16:58:41.540Z,29.58
2022-08-03T17:01:22.204Z,29.61
2022-08-03T17:04:02.377Z,29.47
2022-08-03T17:06:36.164Z,29.22
2022-08-03T17:12:02.781Z,28.67
2022-08-03T17:14:29.893Z,28.58
2022-08-03T17:17:03.831Z,28.33
2022-08-03T17:19:32.548Z,28.28
2022-08-03T17:22:09.075Z,28.17
2022-08-03T17:24:40.953Z,28.03
2022-08-03T17:28:41.502Z,27.95
2022-08-03T17:30:02.578Z,27.86
2022-08-03T17:32:32.474Z,27.71
2022-08-03T17:35:01.156Z,27.49
2022-08-03T17:37:57.880Z,27.29
2022-08-03T17:44:12.735Z,27.12
2022-08-03T17:45:52.866Z,26.71
2022-08-03T17:48:21.515Z,26.78
2022-08-03T17:50:58.853Z,26.86
2022-08-03T17:53:31.770Z,26.73
2022-08-03T17:56:42.555Z,26.52
2022-08-03T18:02:31.061Z,26.22
2022-08-03T18:05:16.708Z,26.19
2022-08-03T18:08:00.800Z,26.05
2022-08-03T18:10:35.272Z,26.00
2022-08-03T18:13:30.205Z,25.85
2022-08-03T18:16:02.363Z,25.84
2022-08-03T18:18:36.687Z,24.98
2022-08-03T18:21:09.395Z,25.60
2022-08-03T18:23:50.946Z,25.59
2022-08-03T18:26:18.911Z,25.37
2022-08-03T18:28:48.614Z,25.37
2022-08-03T18:31:33.106Z,25.34
2022-08-03T18:34:17.078Z,25.13
2022-08-03T18:36:52.863Z,25.14
2022-08-03T18:39:22.977Z,24.88
2022-08-03T18:41:49.781Z,24.93
2022-08-03T18:44:52.511Z,24.88
2022-08-03T18:47:16.112Z,24.78
2022-08-03T18:50:12.555Z,24.58
2022-08-03T18:53:19.487Z,24.50
2022-08-03T18:56:02.279Z,24.52
2022-08-03T18:58:51.458Z,24.26
2022-08-03T19:02:04.133Z,24.05
2022-08-03T19:04:48.269Z,24.17
2022-08-03T19:07:23.324Z,23.98
2022-08-03T19:09:59.166Z,23.88
2022-08-03T19:12:41.927Z,23.93
2022-08-03T19:15:15.742Z,23.75
2022-08-03T19:17:53.690Z,23.59
2022-08-03T19:20:26.434Z,23.29
2022-08-03T19:22:57.303Z,23.42
2022-08-03T19:25:34.551Z,23.42
2022-08-03T19:28:04.199Z,23.28
2022-08-03T19:30:38.571Z,23.12
2022-08-03T19:33:14.666Z,23.11
2022-08-03T19:35:54.904Z,23.05
2022-08-03T19:38:28.516Z,22.87
2022-08-03T19:41:02.549Z,22.89
2022-08-03T19:43:53.040Z,22.89
2022-08-03T19:46:21.840Z,22.84
2022-08-03T19:49:15.649Z,22.77
2022-08-03T19:51:58.606Z,22.75
2022-08-03T19:54:39.644Z,22.81
2022-08-03T19:57:24.589Z,22.68
2022-08-03T19:59:53.670Z,22.73
2022-08-03T20:02:26.637Z,22.65
2022-08-03T20:04:59.684Z,22.64
2022-08-03T20:07:28.861Z,22.51
2022-08-03T20:09:59.730Z,22.67
2022-08-03T20:12:29.564Z,22.63
2022-08-03T20:14:57.990Z,22.53
2022-08-03T20:17:55.299Z,22.54
2022-08-03T20:20:12.412Z,22.41
2022-08-03T20:22:45.494Z,22.43
2022-08-03T20:25:16.407Z,22.33
2022-08-03T20:28:08.211Z,22.18
2022-08-03T20:30:39.103Z,22.22
2022-08-03T20:33:09.462Z,22.17
2022-08-03T20:35:36.226Z,22.20
2022-08-03T20:38:03.526Z,22.19
2022-08-03T20:40:30.321Z,22.07
2022-08-03T20:42:57.038Z,22.04
2022-08-03T20:45:59.965Z,22.10
2022-08-03T20:48:10.707Z,22.05
2022-08-03T20:50:41.450Z,22.00
2022-08-03T20:53:41.294Z,21.99
2022-08-03T20:56:05.338Z,21.92
2022-08-03T20:58:36.113Z,21.97
2022-08-03T21:01:03.306Z,22.02
2022-08-03T21:03:40.531Z,22.21
2022-08-03T21:06:10.267Z,22.44
2022-08-03T21:08:46.864Z,22.65
2022-08-03T21:11:18.389Z,22.71
2022-08-03T21:12:59.179Z,27.25
2022-08-03T21:13:05.166Z,26.30
2022-08-03T21:14:09.065Z,22.35
2022-08-03T21:16:39.071Z,22.17
2022-08-03T21:19:06.509Z,22.09
2022-08-03T21:21:37.302Z,21.82
2022-08-03T21:24:05.836Z,21.70
2022-08-03T21:26:37.402Z,21.59
2022-08-03T21:29:04.280Z,21.41
2022-08-03T21:31:31.156Z,21.65
2022-08-03T21:34:01.140Z,21.47
2022-08-03T21:36:30.248Z,21.62
2022-08-03T21:38:58.022Z,21.65
2022-08-03T21:41:30.191Z,21.67
2022-08-03T21:43:57.427Z,21.71
2022-08-03T21:46:26.147Z,21.52
2022-08-03T21:50:05.267Z,21.34
2022-08-03T21:51:50.236Z,21.28
2022-08-03T21:54:20.158Z,21.27
2022-08-03T21:56:48.213Z,21.23
2022-08-03T21:59:19.840Z,21.21
2022-08-03T22:01:55.409Z,21.24
2022-08-03T22:04:50.867Z,21.42
2022-08-03T22:07:13.759Z,21.67
2022-08-03T22:09:40.954Z,21.62
2022-08-03T22:12:23.830Z,21.52
2022-08-03T22:15:00.597Z,21.17
2022-08-03T22:17:55.937Z,21.21
2022-08-03T22:20:21.581Z,21.11
2022-08-03T22:22:55.498Z,21.16
2022-08-03T22:25:31.600Z,21.14
2022-08-03T22:28:01.588Z,21.13
2022-08-03T22:30:28.941Z,21.07
2022-08-03T22:32:56.462Z,21.10
2022-08-03T22:35:25.872Z,21.14
2022-08-03T22:37:58.567Z,21.17
2022-08-03T22:40:26.545Z,21.15
2022-08-03T22:42:54.509Z,20.98
2022-08-03T22:46:07.275Z,20.92
2022-08-03T22:48:08.956Z,21.05
2022-08-03T22:50:36.050Z,21.04
2022-08-03T22:53:03.652Z,20.98
2022-08-03T22:55:31.192Z,20.82
2022-08-03T22:57:58.091Z,20.96
2022-08-03T23:00:25.052Z,20.90
2022-08-03T23:02:54.093Z,20.91
2022-08-03T23:06:00.575Z,20.86
2022-08-03T23:08:15.395Z,21.00
2022-08-03T23:10:46.991Z,20.78
2022-08-03T23:13:19.688Z,20.73
2022-08-03T23:15:57.202Z,20.59
2022-08-03T23:18:25.479Z,20.50
2022-08-03T23:20:53.639Z,20.56
2022-08-03T23:23:23.499Z,20.49
2022-08-03T23:25:51.683Z,20.46
2022-08-03T23:28:19.322Z,20.35
2022-08-03T23:30:47.470Z,20.40
2022-08-03T23:33:16.496Z,20.44
2022-08-03T23:36:29.295Z,20.44
2022-08-03T23:38:47.625Z,20.33
2022-08-03T23:41:17.732Z,20.44
2022-08-03T23:43:53.900Z,20.48
2022-08-03T23:46:22.771Z,20.43
2022-08-03T23:48:51.081Z,20.40
2022-08-03T23:51:42.371Z,20.43
2022-08-03T23:54:40.762Z,20.35
2022-08-03T23:57:25.767Z,20.35
